Equality, Alabama
Current Conditions -  °F | °C
As of 2:35 PM on Sunday 21 Dec 2014 (Local Time) from KALX Reporting Station
Overcast Overcast  
Wind Chill: 54°   Ceiling: 1300
Heat Index: 54°   Visibility: 10mi
Dew Point: 46°   Wind: 0mph
Humidity: 74%   Direction: NA
Pressure: 30.07"   Gusts: NA
Location:  32.76°N, 86.1°W
Report Text: KALX 212035Z AUTO 00000KT 10SM OVC013 12/08 A3007 RMK AO2 T01230077
Loading
Personal Weather Stations






























Interactive Weather Map New forecast layout! Learn more

10-Day Weather Forecast

Advertisements
Track Severe Weather on mobile